Terminal Aerodrome Forecast
Issued by NWS

Home | Current Version | Previous Version | Text Only | Print | Product List | Glossary On
Versions: 1 2 3 4 5 6 7 8 9 10 11 12 13 14 15 16 17 18 19
000
FTUS41 KCAR 281600 AAB
TAFFVE
TAF AMD
KFVE 281654Z 2817/2912 17005KT P6SM SCT007 OVC025
     FM281800 15006KT P6SM -SHRA OVC015
     FM290300 12008KT 3SM -SHRA BR OVC008
     FM290600 14009KT 3SM -SHRA BR OVC005=

USA.gov is the U.S. government's official web portal to all federal, state and local government web resources and services.